createdAt,value
2018-12-30T00:02:40.383Z,7.68
2018-12-30T00:07:14.026Z,7.69
2018-12-30T00:11:19.435Z,7.63
2018-12-30T00:15:24.366Z,7.61
2018-12-30T00:19:31.071Z,7.53
2018-12-30T00:23:36.303Z,7.67
2018-12-30T00:27:41.387Z,7.59
2018-12-30T00:31:46.751Z,7.62
2018-12-30T00:35:51.950Z,7.64
2018-12-30T00:39:57.009Z,7.63
2018-12-30T00:44:02.355Z,7.67
2018-12-30T00:48:07.482Z,7.65
2018-12-30T00:52:12.778Z,7.66
2018-12-30T00:56:18.543Z,7.67
2018-12-30T01:00:23.716Z,7.69
2018-12-30T01:04:29.367Z,7.71
2018-12-30T01:08:34.442Z,7.64
2018-12-30T01:12:39.920Z,7.58
2018-12-30T01:16:44.986Z,7.53
2018-12-30T01:20:50.250Z,7.48
2018-12-30T01:24:55.873Z,7.48
2018-12-30T01:29:04.738Z,7.59
2018-12-30T01:33:11.450Z,7.54
2018-12-30T01:46:27.326Z,7.49
2018-12-30T01:55:09.951Z,7.45
2018-12-30T01:59:30.246Z,7.44
2018-12-30T02:08:40.914Z,7.42
2018-12-30T02:12:45.987Z,7.48
2018-12-30T02:16:51.119Z,7.43
2018-12-30T02:25:35.315Z,7.44
2018-12-30T02:34:53.961Z,7.39
2018-12-30T02:38:58.956Z,7.43
2018-12-30T02:43:04.240Z,7.44
2018-12-30T02:47:21.280Z,7.42
2018-12-30T02:51:26.347Z,7.42
2018-12-30T03:00:21.514Z,7.34
2018-12-30T03:04:26.571Z,7.34
2018-12-30T03:08:31.616Z,7.23
2018-12-30T03:12:37.584Z,7.30
2018-12-30T03:16:42.602Z,7.21
2018-12-30T03:20:47.648Z,7.23
2018-12-30T03:24:52.906Z,7.18
2018-12-30T03:33:28.147Z,7.11
2018-12-30T03:37:33.227Z,7.03
2018-12-30T03:41:38.369Z,7.03
2018-12-30T03:45:43.459Z,6.97
2018-12-30T03:49:48.429Z,6.90
2018-12-30T03:53:53.581Z,6.92
2018-12-30T03:57:58.635Z,6.89
2018-12-30T04:02:03.668Z,6.89
2018-12-30T04:06:08.785Z,6.91
2018-12-30T04:10:13.755Z,6.83
2018-12-30T04:14:18.820Z,6.80
2018-12-30T04:18:23.800Z,6.86
2018-12-30T04:22:28.768Z,6.75
2018-12-30T04:26:33.919Z,6.81
2018-12-30T04:30:38.949Z,6.77
2018-12-30T04:34:44.032Z,6.82
2018-12-30T04:38:49.160Z,6.76
2018-12-30T04:42:54.262Z,6.77
2018-12-30T04:46:59.359Z,6.80
2018-12-30T04:51:04.519Z,6.86
2018-12-30T04:55:09.667Z,6.88
2018-12-30T04:59:14.745Z,6.90
2018-12-30T05:03:19.805Z,6.85
2018-12-30T05:07:25.061Z,6.87
2018-12-30T05:11:30.153Z,6.90
2018-12-30T05:15:35.202Z,6.93
2018-12-30T05:19:40.185Z,6.70
2018-12-30T05:23:46.864Z,6.75
2018-12-30T05:27:51.796Z,6.65
2018-12-30T05:31:56.833Z,6.64
2018-12-30T05:36:01.854Z,6.63
2018-12-30T05:40:06.914Z,6.59
2018-12-30T05:44:11.979Z,6.54
2018-12-30T05:48:17.476Z,6.44
2018-12-30T05:52:22.576Z,6.52
2018-12-30T05:56:27.643Z,6.47
2018-12-30T06:00:32.693Z,6.40
2018-12-30T06:04:37.704Z,6.47
2018-12-30T06:08:42.743Z,6.39
2018-12-30T06:12:47.740Z,6.41
2018-12-30T06:16:52.716Z,6.46
2018-12-30T06:21:16.858Z,6.51
2018-12-30T06:25:21.855Z,6.51
2018-12-30T06:29:26.848Z,6.57
2018-12-30T06:33:31.885Z,6.52
2018-12-30T06:37:36.800Z,6.56
2018-12-30T06:41:41.873Z,6.59
2018-12-30T06:45:46.915Z,6.61
2018-12-30T06:49:51.954Z,6.64
2018-12-30T06:53:56.976Z,6.69
2018-12-30T06:58:02.019Z,6.69
2018-12-30T07:02:07.066Z,6.65
2018-12-30T07:06:12.100Z,6.65
2018-12-30T07:10:17.085Z,6.67
2018-12-30T07:14:22.226Z,6.61
2018-12-30T07:18:27.335Z,6.61
2018-12-30T07:22:32.283Z,6.67
2018-12-30T07:26:37.344Z,6.69
2018-12-30T07:30:42.390Z,6.63
2018-12-30T07:34:47.424Z,6.60
2018-12-30T07:38:54.151Z,6.60
2018-12-30T07:43:05.055Z,6.61
2018-12-30T07:47:10.034Z,6.40
2018-12-30T07:51:15.140Z,6.34
2018-12-30T07:55:20.093Z,6.31
2018-12-30T07:59:25.172Z,6.24
2018-12-30T08:03:30.071Z,6.18
2018-12-30T08:07:35.142Z,6.17
2018-12-30T08:11:40.170Z,6.13
2018-12-30T08:15:45.211Z,6.02
2018-12-30T08:20:01.922Z,6.10
2018-12-30T08:24:06.901Z,6.16
2018-12-30T08:28:11.794Z,6.16
2018-12-30T08:32:17.120Z,6.17
2018-12-30T08:36:22.028Z,6.19
2018-12-30T08:40:27.002Z,6.28
2018-12-30T08:44:32.018Z,6.42
2018-12-30T08:48:36.973Z,6.43
2018-12-30T08:52:41.935Z,6.43
2018-12-30T08:56:46.990Z,6.54
2018-12-30T09:00:51.995Z,6.77
2018-12-30T09:04:57.789Z,6.78
2018-12-30T09:09:09.844Z,6.75
2018-12-30T09:13:14.845Z,6.81
2018-12-30T09:17:19.894Z,6.76
2018-12-30T09:21:24.903Z,6.72
2018-12-30T09:25:30.000Z,6.67
2018-12-30T09:29:35.338Z,6.74
2018-12-30T09:33:40.533Z,6.68
2018-12-30T09:37:45.516Z,6.59
2018-12-30T09:41:50.668Z,6.68
2018-12-30T09:45:55.765Z,6.72
2018-12-30T09:50:00.822Z,6.77
2018-12-30T09:54:05.886Z,6.68
2018-12-30T09:58:10.920Z,6.66
2018-12-30T10:02:15.903Z,6.63
2018-12-30T10:06:20.857Z,6.62
2018-12-30T10:10:26.017Z,6.67
2018-12-30T10:14:31.003Z,6.76
2018-12-30T10:18:36.003Z,6.77
2018-12-30T10:22:40.999Z,6.88
2018-12-30T10:26:46.008Z,6.76
2018-12-30T10:30:51.005Z,6.65
2018-12-30T10:35:15.236Z,6.73
2018-12-30T10:39:20.335Z,6.79
2018-12-30T10:43:25.480Z,6.79
2018-12-30T10:52:05.723Z,6.89
2018-12-30T10:56:10.759Z,7.05
2018-12-30T11:00:18.146Z,7.17
2018-12-30T11:04:23.213Z,7.19
2018-12-30T11:08:28.315Z,7.18
2018-12-30T11:17:27.176Z,7.16
2018-12-30T11:22:25.845Z,7.31
2018-12-30T11:26:30.932Z,7.37
2018-12-30T11:35:20.060Z,7.14
2018-12-30T11:39:25.179Z,7.16
2018-12-30T11:52:22.303Z,7.28
2018-12-30T11:56:27.459Z,7.27
2018-12-30T12:00:32.620Z,7.36
2018-12-30T12:04:37.612Z,7.32
2018-12-30T12:08:42.696Z,7.31
2018-12-30T12:22:32.372Z,7.23
2018-12-30T12:26:37.434Z,7.29
2018-12-30T12:30:42.581Z,7.37
2018-12-30T12:34:47.883Z,7.39
2018-12-30T12:38:52.971Z,7.37
2018-12-30T12:43:17.190Z,7.41
2018-12-30T12:52:18.960Z,7.41
2018-12-30T12:56:24.032Z,7.36
2018-12-30T13:00:29.167Z,7.41
2018-12-30T13:04:34.254Z,7.51
2018-12-30T13:08:39.263Z,7.49
2018-12-30T13:12:44.278Z,7.50
2018-12-30T13:16:49.296Z,7.52
2018-12-30T13:20:54.839Z,7.54
2018-12-30T13:24:59.937Z,7.64
2018-12-30T13:29:04.997Z,7.71
2018-12-30T13:33:10.048Z,7.70
2018-12-30T13:37:15.209Z,7.58
2018-12-30T13:41:20.340Z,7.57
2018-12-30T13:45:25.410Z,7.44
2018-12-30T13:49:30.483Z,7.41
2018-12-30T13:53:35.502Z,7.39
2018-12-30T13:57:40.500Z,7.47
2018-12-30T14:02:04.684Z,7.41
2018-12-30T14:06:09.802Z,7.41
2018-12-30T14:10:14.872Z,7.40
2018-12-30T14:14:19.975Z,7.40
2018-12-30T14:18:25.034Z,7.46
2018-12-30T14:22:41.883Z,7.43
2018-12-30T14:26:59.958Z,7.43
2018-12-30T14:31:05.245Z,7.47
2018-12-30T14:35:10.418Z,7.46
2018-12-30T14:39:15.481Z,7.43
2018-12-30T14:43:20.433Z,7.44
2018-12-30T14:47:25.509Z,7.41
2018-12-30T14:51:30.568Z,7.47
2018-12-30T14:55:35.751Z,7.43
2018-12-30T14:59:40.744Z,7.43
2018-12-30T15:08:02.762Z,7.32
2018-12-30T15:12:07.856Z,7.32
2018-12-30T15:16:12.972Z,7.32
2018-12-30T15:20:19.603Z,7.28
2018-12-30T15:24:24.625Z,7.31
2018-12-30T15:28:29.746Z,7.25
2018-12-30T15:32:35.238Z,7.11
2018-12-30T15:36:40.135Z,6.96
2018-12-30T15:40:45.330Z,6.76
2018-12-30T15:44:50.353Z,6.68
2018-12-30T15:48:55.427Z,6.65
2018-12-30T15:53:00.510Z,6.52
2018-12-30T15:57:05.587Z,6.52
2018-12-30T16:01:10.541Z,6.48
2018-12-30T16:05:15.619Z,6.44
2018-12-30T16:09:20.727Z,6.43
2018-12-30T16:13:25.793Z,6.48
2018-12-30T16:17:30.875Z,6.48
2018-12-30T16:21:35.846Z,6.47
2018-12-30T16:25:40.845Z,6.51
2018-12-30T16:29:45.853Z,6.55
2018-12-30T16:34:03.020Z,6.60
2018-12-30T16:38:08.236Z,6.59
2018-12-30T16:42:32.580Z,6.59
2018-12-30T16:46:37.698Z,6.59
2018-12-30T16:50:42.794Z,6.60
2018-12-30T16:54:50.123Z,6.62
2018-12-30T17:03:43.314Z,6.67
2018-12-30T17:07:48.517Z,6.64
2018-12-30T17:11:53.873Z,6.61
2018-12-30T17:15:59.173Z,6.60
2018-12-30T17:20:52.925Z,6.65
2018-12-30T17:25:10.236Z,6.61
2018-12-30T17:43:21.470Z,6.68
2018-12-30T17:47:26.749Z,6.63
2018-12-30T17:51:31.776Z,6.65
2018-12-30T17:55:36.902Z,6.68
2018-12-30T17:59:41.974Z,6.68
2018-12-30T18:03:47.131Z,6.71
2018-12-30T18:07:52.214Z,6.73
2018-12-30T18:21:49.405Z,6.78
2018-12-30T18:30:33.939Z,6.83
2018-12-30T18:34:39.514Z,6.84
2018-12-30T18:43:27.174Z,6.91
2018-12-30T18:47:32.241Z,6.93
2018-12-30T18:51:45.166Z,6.98
2018-12-30T19:36:40.053Z,7.14
2018-12-30T19:40:56.753Z,7.08
2018-12-30T19:50:44.737Z,7.21
2018-12-30T19:54:50.105Z,7.25
2018-12-30T19:58:55.269Z,7.24
2018-12-30T20:03:03.349Z,7.28
2018-12-30T20:07:56.974Z,7.26
2018-12-30T20:31:02.472Z,7.32
2018-12-30T20:45:31.908Z,7.34
2018-12-30T20:54:16.702Z,7.37
2018-12-30T20:58:28.717Z,7.39
2018-12-30T21:26:26.523Z,7.44
2018-12-30T21:30:40.218Z,7.50
2018-12-30T21:44:46.063Z,7.53
2018-12-30T21:48:51.202Z,7.54
2018-12-30T21:52:56.273Z,7.54
2018-12-30T21:57:39.472Z,7.52
2018-12-30T22:01:44.475Z,7.52
2018-12-30T22:05:49.562Z,7.54
2018-12-30T22:14:10.915Z,7.61
2018-12-30T22:18:15.985Z,7.62
2018-12-30T22:22:21.037Z,7.60
2018-12-30T22:26:26.112Z,7.60
2018-12-30T22:30:31.102Z,7.68
2018-12-30T22:34:35.992Z,7.61
2018-12-30T22:38:41.088Z,7.67
2018-12-30T22:42:46.172Z,7.71
2018-12-30T23:06:37.570Z,7.71
